createdAt,value
2018-06-19T00:00:52.742Z,64.10
2018-06-19T00:01:56.869Z,63.20
2018-06-19T00:03:01.329Z,63.10
2018-06-19T00:04:05.705Z,63.10
2018-06-19T00:05:09.903Z,63.10
2018-06-19T00:06:14.043Z,63.10
2018-06-19T00:07:18.149Z,62.50
2018-06-19T00:08:22.231Z,63.20
2018-06-19T00:10:30.514Z,63.20
2018-06-19T00:11:34.723Z,63.70
2018-06-19T00:12:38.771Z,63.20
2018-06-19T00:13:42.841Z,63.20
2018-06-19T00:14:46.951Z,63.20
2018-06-19T00:15:51.086Z,64.10
2018-06-19T00:16:56.089Z,63.30
2018-06-19T00:18:05.640Z,63.30
2018-06-19T00:19:10.044Z,63.40
2018-06-19T00:20:14.185Z,63.30
2018-06-19T00:21:36.692Z,64.10
2018-06-19T00:22:40.921Z,63.20
2018-06-19T00:23:45.015Z,63.20
2018-06-19T00:24:49.218Z,63.40
2018-06-19T00:25:53.342Z,63.40
2018-06-19T00:26:57.517Z,63.40
2018-06-19T00:28:01.782Z,63.40
2018-06-19T00:29:05.907Z,63.40
2018-06-19T00:30:09.997Z,63.60
2018-06-19T00:31:14.136Z,63.50
2018-06-19T00:32:18.289Z,63.60
2018-06-19T00:33:22.368Z,63.50
2018-06-19T00:34:26.474Z,63.60
2018-06-19T00:35:30.572Z,63.60
2018-06-19T00:36:34.644Z,63.60
2018-06-19T00:37:38.782Z,63.60
2018-06-19T00:38:42.869Z,63.60
2018-06-19T00:39:46.956Z,63.80
2018-06-19T00:40:51.117Z,63.90
2018-06-19T00:41:55.241Z,63.90
2018-06-19T00:42:59.378Z,64.60
2018-06-19T00:44:03.510Z,64.60
2018-06-19T00:45:07.763Z,63.90
2018-06-19T00:46:11.993Z,64.00
2018-06-19T00:47:16.115Z,64.00
2018-06-19T00:48:20.539Z,64.10
2018-06-19T00:49:24.629Z,64.10
2018-06-19T00:50:28.814Z,64.20
2018-06-19T00:51:32.957Z,64.30
2018-06-19T00:52:37.030Z,64.30
2018-06-19T00:53:41.136Z,64.40
2018-06-19T00:54:45.425Z,64.30
2018-06-19T00:55:49.562Z,64.30
2018-06-19T00:56:57.924Z,64.50
2018-06-19T00:58:02.041Z,64.40
2018-06-19T00:59:06.193Z,64.40
2018-06-19T01:00:10.231Z,64.40
2018-06-19T01:01:14.409Z,64.60
2018-06-19T01:02:18.588Z,64.60
2018-06-19T01:03:22.662Z,64.60
2018-06-19T01:04:26.726Z,64.60
2018-06-19T01:05:30.867Z,64.60
2018-06-19T01:06:35.026Z,64.60
2018-06-19T01:07:39.117Z,64.60
2018-06-19T01:08:43.189Z,64.50
2018-06-19T01:09:47.294Z,64.60
2018-06-19T01:10:51.370Z,64.60
2018-06-19T01:11:55.518Z,65.60
2018-06-19T01:12:59.674Z,64.80
2018-06-19T01:14:03.824Z,64.80
2018-06-19T01:15:08.000Z,64.80
2018-06-19T01:16:12.173Z,64.80
2018-06-19T01:17:16.411Z,65.70
2018-06-19T01:18:20.517Z,64.80
2018-06-19T01:19:24.687Z,64.70
2018-06-19T01:20:28.843Z,64.70
2018-06-19T01:21:32.930Z,64.80
2018-06-19T01:22:37.437Z,64.80
2018-06-19T01:23:42.431Z,64.80
2018-06-19T01:25:50.273Z,64.80
2018-06-19T01:26:54.473Z,64.80
2018-06-19T01:27:58.674Z,64.70
2018-06-19T01:29:08.740Z,64.60
2018-06-19T01:30:18.845Z,64.40
2018-06-19T01:31:29.248Z,64.40
2018-06-19T01:32:39.437Z,64.20
2018-06-19T01:33:50.258Z,64.10
2018-06-19T01:34:54.389Z,64.10
2018-06-19T01:35:58.557Z,64.10
2018-06-19T01:37:02.715Z,64.10
2018-06-19T01:38:06.848Z,64.10
2018-06-19T01:39:11.445Z,64.20
2018-06-19T01:40:15.587Z,64.10
2018-06-19T01:41:20.318Z,64.10
2018-06-19T01:42:24.509Z,64.10
2018-06-19T01:43:28.638Z,64.10
2018-06-19T01:44:32.761Z,64.30
2018-06-19T01:45:36.892Z,65.10
2018-06-19T01:46:41.036Z,64.30
2018-06-19T01:47:45.192Z,64.30
2018-06-19T01:48:49.394Z,64.30
2018-06-19T01:49:53.540Z,64.30
2018-06-19T01:50:57.688Z,65.20
2018-06-19T01:52:01.864Z,64.30
2018-06-19T01:53:06.011Z,64.30
2018-06-19T01:54:10.153Z,64.30
2018-06-19T01:55:14.315Z,64.30
2018-06-19T01:56:18.429Z,64.30
2018-06-19T01:57:22.567Z,64.30
2018-06-19T01:58:26.761Z,65.10
2018-06-19T01:59:30.848Z,64.30
2018-06-19T02:00:34.981Z,64.30
2018-06-19T02:01:39.105Z,64.30
2018-06-19T02:02:43.207Z,64.90
2018-06-19T02:03:47.269Z,64.40
2018-06-19T02:04:51.392Z,64.40
2018-06-19T02:05:55.471Z,64.50
2018-06-19T02:06:59.614Z,64.50
2018-06-19T02:08:03.708Z,64.40
2018-06-19T02:09:08.787Z,64.50
2018-06-19T02:10:12.947Z,64.50
2018-06-19T02:11:17.134Z,64.50
2018-06-19T02:12:21.275Z,64.40
2018-06-19T02:13:25.343Z,64.30
2018-06-19T02:14:29.544Z,64.30
2018-06-19T02:15:33.853Z,64.20
2018-06-19T02:16:37.997Z,64.20
2018-06-19T02:17:42.033Z,64.20
2018-06-19T02:18:46.120Z,64.20
2018-06-19T02:19:50.233Z,64.10
2018-06-19T02:20:54.757Z,64.20
2018-06-19T02:21:58.882Z,64.20
2018-06-19T02:23:02.945Z,64.20
2018-06-19T02:24:07.085Z,64.30
2018-06-19T02:25:11.157Z,64.40
2018-06-19T02:26:15.246Z,64.30
2018-06-19T02:27:19.329Z,64.50
2018-06-19T02:28:23.469Z,64.50
2018-06-19T02:29:27.570Z,64.50
2018-06-19T02:30:31.646Z,64.70
2018-06-19T02:31:35.762Z,64.70
2018-06-19T02:32:39.888Z,64.90
2018-06-19T02:33:44.016Z,65.00
2018-06-19T02:34:48.095Z,65.10
2018-06-19T02:35:52.257Z,65.20
2018-06-19T02:36:56.317Z,65.20
2018-06-19T02:38:00.416Z,65.20
2018-06-19T02:39:07.439Z,65.30
2018-06-19T02:40:11.561Z,65.30
2018-06-19T02:41:15.779Z,65.20
2018-06-19T02:42:19.921Z,65.20
2018-06-19T02:43:24.046Z,65.20
2018-06-19T02:44:28.115Z,65.30
2018-06-19T02:45:32.242Z,65.20
2018-06-19T02:46:36.539Z,65.20
2018-06-19T02:47:40.660Z,65.30
2018-06-19T02:48:44.807Z,65.20
2018-06-19T02:49:48.915Z,65.10
2018-06-19T02:51:56.777Z,65.20
2018-06-19T02:53:00.926Z,65.20
2018-06-19T02:54:05.341Z,65.20
2018-06-19T02:55:09.419Z,65.30
2018-06-19T02:56:13.555Z,65.30
2018-06-19T02:57:17.867Z,65.40
2018-06-19T02:58:21.991Z,65.50
2018-06-19T02:59:26.079Z,65.50
2018-06-19T03:00:30.474Z,65.70
2018-06-19T03:01:34.524Z,65.80
2018-06-19T03:02:41.278Z,65.90
2018-06-19T03:03:45.540Z,66.00
2018-06-19T03:04:49.971Z,66.10
2018-06-19T03:05:54.244Z,66.20
2018-06-19T03:06:58.343Z,66.30
2018-06-19T03:08:02.546Z,66.30
2018-06-19T03:09:08.508Z,66.20
2018-06-19T03:10:12.753Z,66.30
2018-06-19T03:11:16.857Z,66.40
2018-06-19T03:12:20.931Z,66.50
2018-06-19T03:13:25.005Z,66.60
2018-06-19T03:14:29.104Z,66.80
2018-06-19T03:15:33.291Z,67.60
2018-06-19T03:16:37.397Z,66.80
2018-06-19T03:17:41.638Z,67.60
2018-06-19T03:18:45.712Z,66.70
2018-06-19T03:19:49.831Z,66.80
2018-06-19T03:20:53.981Z,66.60
2018-06-19T03:21:58.057Z,66.50
2018-06-19T03:23:02.191Z,66.30
2018-06-19T03:24:06.335Z,66.20
2018-06-19T03:25:10.457Z,66.20
2018-06-19T03:26:14.607Z,66.00
2018-06-19T03:27:18.762Z,66.10
2018-06-19T03:28:22.838Z,66.00
2018-06-19T03:29:26.933Z,66.20
2018-06-19T03:30:31.043Z,66.20
2018-06-19T03:31:35.211Z,66.20
2018-06-19T03:32:39.317Z,66.20
2018-06-19T03:33:43.367Z,66.20
2018-06-19T03:34:47.511Z,66.20
2018-06-19T03:35:51.687Z,66.30
2018-06-19T03:36:55.846Z,66.30
2018-06-19T03:38:00.050Z,66.20
2018-06-19T03:39:06.524Z,66.20
2018-06-19T03:40:10.664Z,66.20
2018-06-19T03:41:14.753Z,66.20
2018-06-19T03:42:18.806Z,66.10
2018-06-19T03:43:22.952Z,65.90
2018-06-19T03:44:27.022Z,66.20
2018-06-19T03:45:31.142Z,66.00
2018-06-19T03:46:35.251Z,66.00
2018-06-19T03:47:39.363Z,66.00
2018-06-19T03:48:43.482Z,65.90
2018-06-19T03:49:47.635Z,65.80
2018-06-19T03:50:51.800Z,66.50
2018-06-19T03:51:56.006Z,65.70
2018-06-19T03:53:00.119Z,65.60
2018-06-19T03:54:04.228Z,65.60
2018-06-19T03:55:08.420Z,65.50
2018-06-19T03:56:12.571Z,65.50
2018-06-19T03:57:16.713Z,65.30
2018-06-19T03:58:20.852Z,65.30
2018-06-19T03:59:24.910Z,65.20
2018-06-19T04:00:28.998Z,65.20
2018-06-19T04:01:33.100Z,65.20
2018-06-19T04:02:37.215Z,65.10
2018-06-19T04:03:41.358Z,65.10
2018-06-19T04:04:45.616Z,65.10
2018-06-19T04:05:49.649Z,65.10
2018-06-19T04:06:53.746Z,65.10
2018-06-19T04:07:57.932Z,65.20
2018-06-19T04:09:04.747Z,65.80
2018-06-19T04:10:08.921Z,65.10
2018-06-19T04:11:13.080Z,65.10
2018-06-19T04:12:17.182Z,65.10
2018-06-19T04:13:21.295Z,64.90
2018-06-19T04:14:25.465Z,64.90
2018-06-19T04:15:29.561Z,64.90
2018-06-19T04:16:33.660Z,64.90
2018-06-19T04:17:44.389Z,64.90
2018-06-19T04:18:48.475Z,64.80
2018-06-19T04:19:52.900Z,64.10
2018-06-19T04:20:57.004Z,64.80
2018-06-19T04:22:01.105Z,64.70
2018-06-19T04:23:05.507Z,64.50
2018-06-19T04:24:09.595Z,64.60
2018-06-19T04:25:13.701Z,64.60
2018-06-19T04:26:17.933Z,64.60
2018-06-19T04:27:22.376Z,64.60
2018-06-19T04:28:26.651Z,64.70
2018-06-19T04:29:30.744Z,64.80
2018-06-19T04:30:34.883Z,64.80
2018-06-19T04:31:39.049Z,64.80
2018-06-19T04:32:43.189Z,64.80
2018-06-19T04:34:51.167Z,64.90
2018-06-19T04:35:55.522Z,64.90
2018-06-19T04:36:59.753Z,64.80
2018-06-19T04:38:03.860Z,64.70
2018-06-19T04:39:09.581Z,64.70
2018-06-19T04:40:13.747Z,65.50
2018-06-19T04:41:17.860Z,64.80
2018-06-19T04:42:21.936Z,64.90
2018-06-19T04:43:26.137Z,64.90
2018-06-19T04:44:30.243Z,64.80
2018-06-19T04:45:34.344Z,64.90
2018-06-19T04:46:38.668Z,64.90
2018-06-19T04:48:46.583Z,64.90
2018-06-19T04:50:54.521Z,64.80
2018-06-19T04:51:58.617Z,64.90
2018-06-19T04:53:02.807Z,64.90
2018-06-19T04:54:06.901Z,64.80
2018-06-19T04:55:10.985Z,64.90
2018-06-19T04:56:15.070Z,64.90
2018-06-19T04:57:19.145Z,65.00
2018-06-19T04:58:23.434Z,64.90
2018-06-19T04:59:27.549Z,64.90
2018-06-19T05:00:31.714Z,64.90
2018-06-19T05:01:35.839Z,64.80
2018-06-19T05:02:39.973Z,64.80
2018-06-19T05:03:44.020Z,64.60
2018-06-19T05:05:51.926Z,64.50
2018-06-19T05:06:56.111Z,64.30
2018-06-19T05:08:00.233Z,64.10
2018-06-19T05:09:06.842Z,64.10
2018-06-19T05:10:11.001Z,64.00
2018-06-19T05:12:18.769Z,63.90
2018-06-19T05:13:22.891Z,63.80
2018-06-19T05:14:27.076Z,63.80
2018-06-19T05:15:31.174Z,63.70
2018-06-19T05:16:35.297Z,63.70
2018-06-19T05:17:39.421Z,63.70
2018-06-19T05:18:43.549Z,63.70
2018-06-19T05:19:47.828Z,63.60
2018-06-19T05:20:51.951Z,63.60
2018-06-19T05:21:56.121Z,63.50
2018-06-19T05:24:04.326Z,63.60
2018-06-19T05:25:08.450Z,64.30
2018-06-19T05:26:12.612Z,63.40
2018-06-19T05:27:16.813Z,63.40
2018-06-19T05:28:20.926Z,63.40
2018-06-19T05:29:25.063Z,63.30
2018-06-19T05:30:29.253Z,63.20
2018-06-19T05:31:33.283Z,63.20
2018-06-19T05:32:37.549Z,63.30
2018-06-19T05:33:41.677Z,63.40
2018-06-19T05:34:45.804Z,64.10
2018-06-19T05:35:49.925Z,63.30
2018-06-19T05:36:53.989Z,63.10
2018-06-19T05:37:58.157Z,63.10
2018-06-19T05:39:02.357Z,63.10
2018-06-19T05:40:06.562Z,63.10
2018-06-19T05:41:10.685Z,63.10
2018-06-19T05:42:14.847Z,63.00
2018-06-19T05:43:18.890Z,62.90
2018-06-19T05:44:23.075Z,62.90
2018-06-19T05:45:27.176Z,62.80
2018-06-19T05:46:31.370Z,62.80
2018-06-19T05:47:35.559Z,62.60
2018-06-19T05:48:39.685Z,62.50
2018-06-19T05:49:43.834Z,62.30
2018-06-19T05:50:48.047Z,62.30
2018-06-19T05:51:52.281Z,62.10
2018-06-19T05:52:56.402Z,61.90
2018-06-19T05:54:00.805Z,61.80
2018-06-19T05:55:04.916Z,61.80
2018-06-19T05:56:09.026Z,61.80
2018-06-19T05:57:13.196Z,62.50
2018-06-19T05:58:17.300Z,61.70
2018-06-19T05:59:21.410Z,61.70
2018-06-19T06:00:25.478Z,61.80
2018-06-19T06:01:29.547Z,61.80
2018-06-19T06:02:33.800Z,61.80
2018-06-19T06:03:37.927Z,61.70
2018-06-19T06:04:42.156Z,62.40
2018-06-19T06:05:46.319Z,61.70
2018-06-19T06:06:50.403Z,61.50
2018-06-19T06:08:58.404Z,61.50
2018-06-19T06:10:02.495Z,61.50
2018-06-19T06:11:06.936Z,61.20
2018-06-19T06:12:11.049Z,61.10
2018-06-19T06:13:18.195Z,61.00
2018-06-19T06:14:22.303Z,60.90
2018-06-19T06:15:26.558Z,60.80
2018-06-19T06:16:30.688Z,60.80
2018-06-19T06:17:34.884Z,60.70
2018-06-19T06:18:39.020Z,60.50
2018-06-19T06:19:43.125Z,60.40
2018-06-19T06:20:47.274Z,61.20
2018-06-19T06:21:51.419Z,60.30
2018-06-19T06:22:56.435Z,60.30
2018-06-19T06:24:00.473Z,60.30
2018-06-19T06:25:04.549Z,60.20
2018-06-19T06:26:08.739Z,60.00
2018-06-19T06:27:12.942Z,60.00
2018-06-19T06:28:17.076Z,59.80
2018-06-19T06:29:21.268Z,59.70
2018-06-19T06:30:25.432Z,59.70
2018-06-19T06:31:29.512Z,59.50
2018-06-19T06:32:33.743Z,59.40
2018-06-19T06:33:37.843Z,59.20
2018-06-19T06:34:41.962Z,59.00
2018-06-19T06:35:46.234Z,58.90
2018-06-19T06:37:54.038Z,58.90
2018-06-19T06:38:58.393Z,58.90
2018-06-19T06:40:02.542Z,58.90
2018-06-19T06:41:06.633Z,58.80
2018-06-19T06:42:10.769Z,58.70
2018-06-19T06:43:14.925Z,58.60
2018-06-19T06:44:19.021Z,58.50
2018-06-19T06:45:23.101Z,58.50
2018-06-19T06:46:27.294Z,58.40
2018-06-19T06:47:31.436Z,58.30
2018-06-19T06:48:35.611Z,58.20
2018-06-19T06:49:39.674Z,58.20
2018-06-19T06:50:43.728Z,58.20
2018-06-19T06:51:47.914Z,58.20
2018-06-19T06:52:52.049Z,58.30
2018-06-19T06:53:56.199Z,58.20
2018-06-19T06:55:00.481Z,58.10
2018-06-19T06:56:05.095Z,58.20
2018-06-19T06:57:09.318Z,58.20
2018-06-19T06:58:14.044Z,58.20
2018-06-19T06:59:18.230Z,58.20
2018-06-19T07:00:22.371Z,58.20
2018-06-19T07:01:26.632Z,58.30
2018-06-19T07:02:30.731Z,58.30
2018-06-19T07:03:34.893Z,58.10
2018-06-19T07:04:39.068Z,58.00
2018-06-19T07:05:43.221Z,58.00
2018-06-19T07:06:47.495Z,58.00
2018-06-19T07:07:51.803Z,57.90
2018-06-19T07:08:55.945Z,57.80
2018-06-19T07:10:00.130Z,57.50
2018-06-19T07:11:04.181Z,57.30
2018-06-19T07:12:08.552Z,57.40
2018-06-19T07:13:12.687Z,57.30
2018-06-19T07:14:16.851Z,57.40
2018-06-19T07:15:21.017Z,58.00
2018-06-19T07:16:25.241Z,57.40
2018-06-19T07:17:29.428Z,57.40
2018-06-19T07:18:33.599Z,57.50
2018-06-19T07:19:37.914Z,57.60
2018-06-19T07:20:42.227Z,57.50
2018-06-19T07:21:46.855Z,57.50
2018-06-19T07:22:51.260Z,57.30
2018-06-19T07:23:56.170Z,57.30
2018-06-19T07:25:01.203Z,57.20
2018-06-19T07:26:05.790Z,57.30
2018-06-19T07:27:10.028Z,57.30
2018-06-19T07:28:14.426Z,57.40
2018-06-19T07:29:18.768Z,57.30
2018-06-19T07:30:22.913Z,57.10
2018-06-19T07:31:27.079Z,57.00
2018-06-19T07:32:31.660Z,57.00
2018-06-19T07:33:36.028Z,57.00
2018-06-19T07:35:43.930Z,56.70
2018-06-19T07:36:48.379Z,56.80
2018-06-19T07:37:52.817Z,56.30
2018-06-19T07:38:56.933Z,56.20
2018-06-19T07:40:01.059Z,55.80
2018-06-19T07:41:05.513Z,55.70
2018-06-19T07:42:09.679Z,55.60
2018-06-19T07:43:13.942Z,55.40
2018-06-19T07:44:18.125Z,55.20
2018-06-19T07:45:22.325Z,55.00
2018-06-19T07:46:26.481Z,54.80
2018-06-19T07:48:35.465Z,55.10
2018-06-19T07:49:39.646Z,54.40
2018-06-19T07:50:43.936Z,54.10
2018-06-19T07:51:48.322Z,54.10
2018-06-19T07:52:52.452Z,54.20
2018-06-19T07:53:56.608Z,54.10
2018-06-19T07:55:00.714Z,54.00
2018-06-19T07:56:05.111Z,53.80
2018-06-19T07:57:09.491Z,53.70
2018-06-19T07:58:13.646Z,53.70
2018-06-19T07:59:17.707Z,53.90
2018-06-19T08:00:22.377Z,53.80
2018-06-19T08:01:26.511Z,53.70
2018-06-19T08:02:30.653Z,53.60
2018-06-19T08:03:34.831Z,53.70
2018-06-19T08:04:38.934Z,53.70
2018-06-19T08:05:43.030Z,53.90
2018-06-19T08:06:47.441Z,53.80
2018-06-19T08:07:51.563Z,53.90
2018-06-19T08:08:55.950Z,54.10
2018-06-19T08:10:00.061Z,54.60
2018-06-19T08:11:04.210Z,53.90
2018-06-19T08:12:08.658Z,53.80
2018-06-19T08:13:12.806Z,53.70
2018-06-19T08:14:16.877Z,53.90
2018-06-19T08:15:21.023Z,53.90
2018-06-19T08:16:25.090Z,53.80
2018-06-19T08:17:29.197Z,53.60
2018-06-19T08:18:33.344Z,53.60
2018-06-19T08:19:37.465Z,53.50
2018-06-19T08:20:41.520Z,53.40
2018-06-19T08:21:45.679Z,52.80
2018-06-19T08:22:49.842Z,53.00
2018-06-19T08:23:53.952Z,52.90
2018-06-19T08:24:58.043Z,52.70
2018-06-19T08:26:02.208Z,52.40
2018-06-19T08:27:06.865Z,52.30
2018-06-19T08:28:10.950Z,52.00
2018-06-19T08:29:15.094Z,51.90
2018-06-19T08:30:19.278Z,52.00
2018-06-19T08:31:23.682Z,51.90
2018-06-19T08:32:27.906Z,51.90
2018-06-19T08:33:32.027Z,52.00
2018-06-19T08:35:39.824Z,51.80
2018-06-19T08:36:43.934Z,51.90
2018-06-19T08:37:48.071Z,51.80
2018-06-19T08:38:52.489Z,51.50
2018-06-19T08:39:56.605Z,51.50
2018-06-19T08:41:00.754Z,51.40
2018-06-19T08:42:05.152Z,51.50
2018-06-19T08:43:09.394Z,51.30
2018-06-19T08:44:13.691Z,51.20
2018-06-19T08:45:17.848Z,51.30
2018-06-19T08:46:22.166Z,51.10
2018-06-19T08:47:26.285Z,51.20
2018-06-19T08:48:30.385Z,51.10
2018-06-19T08:49:34.516Z,51.20
2018-06-19T08:50:38.980Z,50.90
2018-06-19T08:51:43.111Z,50.80
2018-06-19T08:52:55.666Z,50.80
2018-06-19T08:53:59.983Z,50.70
2018-06-19T08:55:04.365Z,50.90
2018-06-19T08:56:08.762Z,50.70
2018-06-19T08:58:16.685Z,50.70
2018-06-19T08:59:20.783Z,50.90
2018-06-19T09:00:24.944Z,50.40
2018-06-19T09:01:29.108Z,50.40
2018-06-19T09:02:33.204Z,50.60
2018-06-19T09:03:37.413Z,50.70
2018-06-19T09:05:45.317Z,50.60
2018-06-19T09:06:49.823Z,50.60
2018-06-19T09:07:54.121Z,50.60
2018-06-19T09:08:58.297Z,50.70
2018-06-19T09:10:02.440Z,50.70
2018-06-19T09:11:06.842Z,50.70
2018-06-19T09:12:12.942Z,50.70
2018-06-19T09:13:17.125Z,50.70
2018-06-19T09:14:21.208Z,50.70
2018-06-19T09:15:25.325Z,50.50
2018-06-19T09:16:29.829Z,50.50
2018-06-19T09:17:34.025Z,50.50
2018-06-19T09:18:38.248Z,50.70
2018-06-19T09:19:43.391Z,50.60
2018-06-19T09:20:47.495Z,50.40
2018-06-19T09:21:52.150Z,50.00
2018-06-19T09:22:56.620Z,49.60
2018-06-19T09:24:02.556Z,49.70
2018-06-19T09:25:06.770Z,49.80
2018-06-19T09:26:12.539Z,49.70
2018-06-19T09:27:17.361Z,49.50
2018-06-19T09:28:21.550Z,49.50
2018-06-19T09:29:25.691Z,50.30
2018-06-19T09:30:31.709Z,49.90
2018-06-19T09:31:36.116Z,50.10
2018-06-19T09:32:40.602Z,50.20
2018-06-19T09:33:44.717Z,50.10
2018-06-19T09:34:48.847Z,50.10
2018-06-19T09:35:54.210Z,49.90
2018-06-19T09:36:58.681Z,49.90
2018-06-19T09:38:02.828Z,49.90
2018-06-19T09:39:09.182Z,49.90
2018-06-19T09:40:13.896Z,49.80
2018-06-19T09:42:22.378Z,49.90
2018-06-19T09:43:26.874Z,49.80
2018-06-19T09:44:31.008Z,49.90
2018-06-19T09:45:35.267Z,50.10
2018-06-19T09:46:41.182Z,50.20
2018-06-19T09:47:48.486Z,50.40
2018-06-19T09:48:52.567Z,50.40
2018-06-19T09:49:56.882Z,50.00
2018-06-19T09:51:01.081Z,49.80
2018-06-19T09:52:05.383Z,49.50
2018-06-19T09:53:09.670Z,49.30
2018-06-19T09:54:13.837Z,49.10
2018-06-19T09:55:18.020Z,49.00
2018-06-19T09:56:22.165Z,48.90
2018-06-19T09:57:26.352Z,48.80
2018-06-19T09:58:30.536Z,48.80
2018-06-19T09:59:34.853Z,48.70
2018-06-19T10:00:38.966Z,48.70
2018-06-19T10:01:43.129Z,48.70
2018-06-19T10:02:47.404Z,48.80
2018-06-19T10:03:51.570Z,48.90
2018-06-19T10:04:55.852Z,48.90
2018-06-19T10:07:03.686Z,49.10
2018-06-19T10:08:07.831Z,49.00
2018-06-19T10:09:11.952Z,49.00
2018-06-19T10:10:16.138Z,48.90
2018-06-19T10:11:20.357Z,48.80
2018-06-19T10:12:24.636Z,48.70
2018-06-19T10:13:29.614Z,48.90
2018-06-19T10:14:33.813Z,48.90
2018-06-19T10:15:38.027Z,48.90
2018-06-19T10:16:42.304Z,48.90
2018-06-19T10:17:46.601Z,48.80
2018-06-19T10:18:50.847Z,48.60
2018-06-19T10:19:55.484Z,48.50
2018-06-19T10:21:00.932Z,48.40
2018-06-19T10:22:05.206Z,48.20
2018-06-19T10:23:09.409Z,48.00
2018-06-19T10:24:13.683Z,48.00
2018-06-19T10:25:17.884Z,48.00
2018-06-19T10:27:25.761Z,48.00
2018-06-19T10:28:29.871Z,47.60
2018-06-19T10:29:34.295Z,47.30
2018-06-19T10:30:38.582Z,47.00
2018-06-19T10:31:42.704Z,46.50
2018-06-19T10:32:46.827Z,46.60
2018-06-19T10:33:51.033Z,46.40
2018-06-19T10:34:55.197Z,46.20
2018-06-19T10:35:59.332Z,45.80
2018-06-19T10:37:03.499Z,45.70
2018-06-19T10:38:07.659Z,45.70
2018-06-19T10:40:16.158Z,45.90
2018-06-19T10:41:20.261Z,46.50
2018-06-19T10:42:24.447Z,45.80
2018-06-19T10:43:28.561Z,46.00
2018-06-19T10:44:32.595Z,46.10
2018-06-19T10:45:36.838Z,45.90
2018-06-19T10:46:40.927Z,46.20
2018-06-19T10:47:45.027Z,46.10
2018-06-19T10:48:49.138Z,46.00
2018-06-19T10:49:53.291Z,45.90
2018-06-19T10:50:57.413Z,45.70
2018-06-19T10:52:01.628Z,45.70
2018-06-19T10:53:05.804Z,45.60
2018-06-19T10:54:09.959Z,45.30
2018-06-19T10:55:14.268Z,45.40
2018-06-19T10:56:18.546Z,45.50
2018-06-19T10:57:22.740Z,45.70
2018-06-19T10:58:26.999Z,45.60
2018-06-19T10:59:31.123Z,45.70
2018-06-19T11:00:35.280Z,45.70
2018-06-19T11:01:39.417Z,45.50
2018-06-19T11:02:43.598Z,45.50
2018-06-19T11:03:47.716Z,45.20
2018-06-19T11:04:51.838Z,44.90
2018-06-19T11:05:56.107Z,44.70
2018-06-19T11:07:00.277Z,44.60
2018-06-19T11:08:04.485Z,44.30
2018-06-19T11:09:10.287Z,44.60
2018-06-19T11:10:14.451Z,44.20
2018-06-19T11:11:18.548Z,43.90
2018-06-19T11:12:22.744Z,43.70
2018-06-19T11:13:26.922Z,43.80
2018-06-19T11:14:31.121Z,43.80
2018-06-19T11:15:35.389Z,44.40
2018-06-19T11:16:39.624Z,43.80
2018-06-19T11:17:43.773Z,43.70
2018-06-19T11:18:47.987Z,43.60
2018-06-19T11:19:52.182Z,43.80
2018-06-19T11:20:56.331Z,44.40
2018-06-19T11:22:00.485Z,44.00
2018-06-19T11:23:04.671Z,44.00
2018-06-19T11:24:08.819Z,43.70
2018-06-19T11:25:13.077Z,43.50
2018-06-19T11:26:17.289Z,43.70
2018-06-19T11:27:21.524Z,43.60
2018-06-19T11:28:25.704Z,43.60
2018-06-19T11:29:31.251Z,43.60
2018-06-19T11:30:35.346Z,43.70
2018-06-19T11:31:39.472Z,43.80
2018-06-19T11:32:43.609Z,43.90
2018-06-19T11:33:47.840Z,44.10
2018-06-19T11:34:52.043Z,44.20
2018-06-19T11:35:56.214Z,44.30
2018-06-19T11:37:00.396Z,44.90
2018-06-19T11:38:04.532Z,44.50
2018-06-19T11:39:11.359Z,44.70
2018-06-19T11:40:15.585Z,44.90
2018-06-19T11:42:23.626Z,46.10
2018-06-19T11:43:27.709Z,45.50
2018-06-19T11:44:31.841Z,45.50
2018-06-19T11:45:36.096Z,45.50
2018-06-19T11:46:40.267Z,45.40
2018-06-19T11:47:44.835Z,45.20
2018-06-19T11:48:49.101Z,45.10
2018-06-19T11:49:53.266Z,45.10
2018-06-19T11:50:57.434Z,44.80
2018-06-19T11:52:01.635Z,44.60
2018-06-19T11:53:05.895Z,44.50
2018-06-19T11:54:10.078Z,44.60
2018-06-19T11:55:14.432Z,44.50
2018-06-19T11:56:18.594Z,44.40
2018-06-19T11:57:22.800Z,45.00
2018-06-19T11:58:26.939Z,44.50
2018-06-19T11:59:31.163Z,44.40
2018-06-19T12:00:35.292Z,44.20
2018-06-19T12:01:39.349Z,44.20
2018-06-19T12:02:43.517Z,44.20
2018-06-19T12:03:48.246Z,43.70
2018-06-19T12:04:52.382Z,44.20
2018-06-19T12:05:56.510Z,44.30
2018-06-19T12:07:00.664Z,44.50
2018-06-19T12:08:05.073Z,44.50
2018-06-19T12:09:09.979Z,44.70
2018-06-19T12:10:14.054Z,44.80
2018-06-19T12:11:18.208Z,44.80
2018-06-19T12:12:22.324Z,44.90
2018-06-19T12:13:26.473Z,44.70
2018-06-19T12:14:30.735Z,44.70
2018-06-19T12:15:35.074Z,44.70
2018-06-19T12:16:39.387Z,44.70
2018-06-19T12:17:43.498Z,44.60
2018-06-19T12:18:47.638Z,44.60
2018-06-19T12:19:51.748Z,44.60
2018-06-19T12:20:55.962Z,44.70
2018-06-19T12:22:00.108Z,44.60
2018-06-19T12:23:04.363Z,44.60
2018-06-19T12:24:08.601Z,44.50
2018-06-19T12:25:12.776Z,44.50
2018-06-19T12:26:17.037Z,44.50
2018-06-19T12:27:21.203Z,44.50
2018-06-19T12:28:25.295Z,44.40
2018-06-19T12:29:29.549Z,44.40
2018-06-19T12:30:33.655Z,44.40
2018-06-19T12:31:37.812Z,44.30
2018-06-19T12:32:41.901Z,44.20
2018-06-19T12:33:45.998Z,44.20
2018-06-19T12:34:50.048Z,43.90
2018-06-19T12:35:54.398Z,43.70
2018-06-19T12:36:58.467Z,43.70
2018-06-19T12:38:02.603Z,43.70
2018-06-19T12:39:08.668Z,43.80
2018-06-19T12:40:12.812Z,43.70
2018-06-19T12:41:17.010Z,43.70
2018-06-19T12:42:21.211Z,43.70
2018-06-19T12:43:25.320Z,43.80
2018-06-19T12:44:29.482Z,43.80
2018-06-19T12:45:33.682Z,43.90
2018-06-19T12:46:38.313Z,44.20
2018-06-19T12:47:42.415Z,44.40
2018-06-19T12:48:46.539Z,44.50
2018-06-19T12:50:30.025Z,44.40
2018-06-19T12:51:45.528Z,44.20
2018-06-19T12:52:59.828Z,44.40
2018-06-19T12:54:48.031Z,44.10
2018-06-19T12:56:03.477Z,44.00
2018-06-19T12:57:07.575Z,43.60
2018-06-19T12:59:15.395Z,43.00
2018-06-19T13:00:19.640Z,42.50
2018-06-19T13:01:24.737Z,42.20
2018-06-19T13:02:28.877Z,41.90
2018-06-19T13:03:44.149Z,41.60
2018-06-19T13:04:59.565Z,41.30
2018-06-19T13:06:14.967Z,41.10
2018-06-19T13:07:19.041Z,40.90
2018-06-19T13:08:23.177Z,40.90
2018-06-19T13:09:27.283Z,40.80
2018-06-19T13:10:31.515Z,40.70
2018-06-19T13:11:36.161Z,40.70
2018-06-19T13:13:21.595Z,40.90
2018-06-19T13:14:36.984Z,40.80
2018-06-19T13:15:41.147Z,40.80
2018-06-19T13:16:56.645Z,40.90
2018-06-19T13:19:11.043Z,39.90
2018-06-19T13:20:26.554Z,39.30
2018-06-19T13:21:30.644Z,39.50
2018-06-19T13:22:34.773Z,39.20
2018-06-19T13:24:42.739Z,38.70
2018-06-19T13:25:46.923Z,38.50
2018-06-19T13:26:51.136Z,38.30
2018-06-19T13:27:55.581Z,38.10
2018-06-19T13:29:37.333Z,37.70
2018-06-19T13:30:52.738Z,37.50
2018-06-19T13:31:56.970Z,37.60
2018-06-19T13:33:01.121Z,37.50
2018-06-19T13:34:05.215Z,37.30
2018-06-19T13:35:09.376Z,37.20
2018-06-19T13:36:13.654Z,37.10
2018-06-19T13:37:17.895Z,37.00
2018-06-19T13:39:25.841Z,37.10
2018-06-19T13:41:08.239Z,36.80
2018-06-19T13:42:23.987Z,37.00
2018-06-19T13:43:39.674Z,37.50
2018-06-19T13:44:55.897Z,37.70
2018-06-19T13:46:00.042Z,37.90
2018-06-19T13:47:04.286Z,38.00
2018-06-19T13:48:08.414Z,37.90
2018-06-19T13:49:12.563Z,38.50
2018-06-19T13:50:16.822Z,37.70
2018-06-19T13:51:20.962Z,37.60
2018-06-19T13:52:25.157Z,37.20
2018-06-19T13:53:29.276Z,37.40
2018-06-19T13:56:13.844Z,37.80
2018-06-19T13:57:32.609Z,38.10
2018-06-19T13:58:37.534Z,38.10
2018-06-19T13:59:41.677Z,38.10
2018-06-19T14:00:45.775Z,38.00
2018-06-19T14:01:50.160Z,37.80
2018-06-19T14:02:54.161Z,37.90
2018-06-19T14:03:58.268Z,37.90
2018-06-19T14:05:03.052Z,37.90
2018-06-19T14:06:08.040Z,37.80
2018-06-19T14:07:12.234Z,37.70
2018-06-19T14:08:33.342Z,37.70
2018-06-19T14:09:49.724Z,37.80
2018-06-19T14:11:05.318Z,37.90
2018-06-19T14:12:22.829Z,37.90
2018-06-19T14:13:27.021Z,38.10
2018-06-19T14:14:31.158Z,36.80
2018-06-19T14:15:41.429Z,36.60
2018-06-19T14:17:49.273Z,35.80
2018-06-19T14:18:53.538Z,35.50
2018-06-19T14:19:57.649Z,35.30
2018-06-19T14:21:01.825Z,34.90
2018-06-19T14:22:06.038Z,34.80
2018-06-19T14:23:10.399Z,34.60
2018-06-19T14:24:14.509Z,34.50
2018-06-19T14:26:22.987Z,35.20